Patterson, NY

1:11 AM EDT on September 21, 2014 (GMT -0400)
Thunder Ridge Ski Area | Change Station
CLOSE
Current Station
Personal Weather Station
Location: Patterson, NY
Elevation: 472 ft
Nearby Weather Stations

Elev 472 ft 41.51 °N, 73.58 °W | Updated 22 minutes ago

Mostly Cloudy
Mostly Cloudy
63.1 °F
Feels Like 63.1 °F
N
1.7
Wind Variable Wind from South

Today
High -- | Low -- °F
--% Chance of Precip.
Yesterday
High -- | Low -- °F
Precip. -- in
6:40 AM 6:53 PM
Waning Crescent, 8% visible
Pressure 30.10 in
Visibility 5.0 miles
Clouds Scattered Clouds 2300 ft
Mostly Cloudy 2800 ft
Overcast 3300 ft
Dew Point 63 °F
Humidity 99%
Rainfall -9999.00 in
Snow Depth Not available.
UV 0 out of 12
Pollen 2.70 out of 12
PM2.5 Good
Flu Activity Not available.
SPECI KDXR 210407Z AUTO 00000KT 5SM -RA BR SCT023 BKN028 OVC033 17/15 A3010 RMK AO2 RAB07 P0000 T01670150

More Conditions Fewer Conditions

Pressure 30.10 in
Visibility 5.0 miles
Clouds Scattered Clouds 2300 ft
Mostly Cloudy 2800 ft
Overcast 3300 ft
Dew Point 63 °F
Humidity 99%
Rainfall -9999.00 in
Snow Depth Not available.
UV 0 out of 12
Pollen 2.70 out of 12
PM2.5 Good
Flu Activity Not available.
SPECI KDXR 210407Z AUTO 00000KT 5SM -RA BR SCT023 BKN028 OVC033 17/15 A3010 RMK AO2 RAB07 P0000 T01670150

More Conditions Fewer Conditions

10-Day Weather Forecast

Almanac

Astronomy

Sep. 21, 2014 Rise Set
Actual Time 6:40 AM EDT 6:53 PM EDT
Civil Twilight 6:13 AM EDT 7:21 PM EDT
Nautical Twilight 5:40 AM EDT 7:53 PM EDT
Astronomical Twilight 5:07 AM EDT 8:26 PM EDT
Moon 4:10 AM EDT 5:29 PM EDT
Length of Visible Light 13h 07m
Length of Day
12h 12m
Tomorrow will be 2m 44s shorter.
Waning Crescent, 8% of the Moon is Illuminated
Today
Waning Crescent
Sep 24
New
Oct 1
First Quarter
Oct 8
Full
Oct 15
Last Quarter

Today's Extremes

State Highs State Lows

Community

WunderPhotos

Upload Photos

1,755,091 photos uploaded!

Nearby

Air Quality

  Air Quality AQ Index Pollutant
Yesterday Good
OZONE
Yesterday Good
PM2.5
Current Good
PM2.5
Saturday Good
OZONE
Saturday Good
PM2.5
Sunday Good
OZONE
Sunday Good
PM2.5
Monday Good
OZONE
Monday Good
PM2.5

Snow Depth

Station Depth Elevation
No new snow has been reported.

Earthquake Activity

City Distance Mag. Time & Date
No recent earthquake activity has been reported nearby.
Minimum magnitude displayed is 2.5.

Coastal Water Temperatures

Place Temperature
Kings Point, NY 68.0 °F
Bridgeport, CT 69.1 °F

Nearby Weather Stations